sensor_id;sensor_type;location;lat;lon;timestamp;temperature;humidity
14378;DHT22;7272;53.668;9.578;2024-02-23T00:02:53;10.40;99.90
14378;DHT22;7272;53.668;9.578;2024-02-23T00:05:58;10.40;99.90
14378;DHT22;7272;53.668;9.578;2024-02-23T00:09:00;10.40;99.90
14378;DHT22;7272;53.668;9.578;2024-02-23T00:12:01;10.30;99.90
14378;DHT22;7272;53.668;9.578;2024-02-23T00:15:03;10.30;99.90
14378;DHT22;7272;53.668;9.578;2024-02-23T00:18:05;10.40;99.90
14378;DHT22;7272;53.668;9.578;2024-02-23T00:21:07;10.40;99.90
14378;DHT22;7272;53.668;9.578;2024-02-23T00:24:09;10.40;99.90
14378;DHT22;7272;53.668;9.578;2024-02-23T00:27:10;10.20;99.90
14378;DHT22;7272;53.668;9.578;2024-02-23T00:30:12;9.90;99.90
14378;DHT22;7272;53.668;9.578;2024-02-23T00:33:13;9.70;99.90
14378;DHT22;7272;53.668;9.578;2024-02-23T00:36:14;9.60;99.90
14378;DHT22;7272;53.668;9.578;2024-02-23T00:39:16;9.50;99.90
14378;DHT22;7272;53.668;9.578;2024-02-23T00:42:17;9.50;99.90
14378;DHT22;7272;53.668;9.578;2024-02-23T00:45:19;9.40;99.90
14378;DHT22;7272;53.668;9.578;2024-02-23T00:48:20;9.40;99.90
14378;DHT22;7272;53.668;9.578;2024-02-23T00:51:21;9.30;99.90
14378;DHT22;7272;53.668;9.578;2024-02-23T00:54:23;9.30;99.90
14378;DHT22;7272;53.668;9.578;2024-02-23T00:57:24;9.30;99.90
14378;DHT22;7272;53.668;9.578;2024-02-23T01:00:30;9.20;99.90
14378;DHT22;7272;53.668;9.578;2024-02-23T01:03:31;9.10;99.90
14378;DHT22;7272;53.668;9.578;2024-02-23T01:06:32;8.90;99.90
14378;DHT22;7272;53.668;9.578;2024-02-23T01:09:34;8.90;99.90
14378;DHT22;7272;53.668;9.578;2024-02-23T01:12:36;8.70;99.90
14378;DHT22;7272;53.668;9.578;2024-02-23T01:15:37;8.70;99.90
14378;DHT22;7272;53.668;9.578;2024-02-23T01:18:39;8.60;99.90
14378;DHT22;7272;53.668;9.578;2024-02-23T01:21:40;8.50;99.90
14378;DHT22;7272;53.668;9.578;2024-02-23T01:24:42;8.50;99.90
14378;DHT22;7272;53.668;9.578;2024-02-23T01:27:43;8.50;99.90
14378;DHT22;7272;53.668;9.578;2024-02-23T01:30:45;8.50;99.90
14378;DHT22;7272;53.668;9.578;2024-02-23T01:33:46;8.50;99.90
14378;DHT22;7272;53.668;9.578;2024-02-23T01:36:48;8.40;99.90
14378;DHT22;7272;53.668;9.578;2024-02-23T01:39:50;8.40;99.90
14378;DHT22;7272;53.668;9.578;2024-02-23T01:43:00;8.40;99.90
14378;DHT22;7272;53.668;9.578;2024-02-23T01:46:04;8.40;99.90
14378;DHT22;7272;53.668;9.578;2024-02-23T01:49:06;8.30;99.90
14378;DHT22;7272;53.668;9.578;2024-02-23T01:52:09;8.30;99.90
14378;DHT22;7272;53.668;9.578;2024-02-23T01:55:11;8.30;99.90
14378;DHT22;7272;53.668;9.578;2024-02-23T01:58:12;8.20;99.90
14378;DHT22;7272;53.668;9.578;2024-02-23T02:01:13;8.20;99.90
14378;DHT22;7272;53.668;9.578;2024-02-23T02:04:15;8.20;99.90
14378;DHT22;7272;53.668;9.578;2024-02-23T02:07:16;8.20;99.90
14378;DHT22;7272;53.668;9.578;2024-02-23T02:10:20;8.10;99.90
14378;DHT22;7272;53.668;9.578;2024-02-23T02:13:22;8.10;99.90
14378;DHT22;7272;53.668;9.578;2024-02-23T02:16:23;8.10;99.90
14378;DHT22;7272;53.668;9.578;2024-02-23T02:19:24;8.00;99.90
14378;DHT22;7272;53.668;9.578;2024-02-23T02:22:25;8.00;99.90
14378;DHT22;7272;53.668;9.578;2024-02-23T02:25:27;7.90;99.90
14378;DHT22;7272;53.668;9.578;2024-02-23T02:28:28;7.90;99.90
14378;DHT22;7272;53.668;9.578;2024-02-23T02:31:30;7.80;99.90
14378;DHT22;7272;53.668;9.578;2024-02-23T02:34:37;7.80;99.90
14378;DHT22;7272;53.668;9.578;2024-02-23T02:37:38;7.80;99.90
14378;DHT22;7272;53.668;9.578;2024-02-23T02:40:40;7.70;99.90
14378;DHT22;7272;53.668;9.578;2024-02-23T02:43:41;7.60;99.90
14378;DHT22;7272;53.668;9.578;2024-02-23T02:46:43;7.70;99.90
14378;DHT22;7272;53.668;9.578;2024-02-23T02:49:44;7.60;99.90
14378;DHT22;7272;53.668;9.578;2024-02-23T02:52:45;7.60;99.90
14378;DHT22;7272;53.668;9.578;2024-02-23T02:55:47;7.70;99.90
14378;DHT22;7272;53.668;9.578;2024-02-23T02:58:49;7.70;99.90
14378;DHT22;7272;53.668;9.578;2024-02-23T03:01:50;7.80;99.90
14378;DHT22;7272;53.668;9.578;2024-02-23T03:04:51;7.80;99.90
14378;DHT22;7272;53.668;9.578;2024-02-23T03:07:55;7.80;99.90
14378;DHT22;7272;53.668;9.578;2024-02-23T03:10:57;7.80;99.90
14378;DHT22;7272;53.668;9.578;2024-02-23T03:13:58;7.70;99.90
14378;DHT22;7272;53.668;9.578;2024-02-23T03:16:59;7.70;99.90
14378;DHT22;7272;53.668;9.578;2024-02-23T03:20:00;7.70;99.90
14378;DHT22;7272;53.668;9.578;2024-02-23T03:23:02;7.60;99.90
14378;DHT22;7272;53.668;9.578;2024-02-23T03:26:06;7.60;99.90
14378;DHT22;7272;53.668;9.578;2024-02-23T03:29:08;7.60;99.90
14378;DHT22;7272;53.668;9.578;2024-02-23T03:32:10;7.60;99.90
14378;DHT22;7272;53.668;9.578;2024-02-23T03:35:11;7.60;99.90
14378;DHT22;7272;53.668;9.578;2024-02-23T03:38:12;7.60;99.90
14378;DHT22;7272;53.668;9.578;2024-02-23T03:41:14;7.60;99.90
14378;DHT22;7272;53.668;9.578;2024-02-23T03:44:15;7.60;99.90
14378;DHT22;7272;53.668;9.578;2024-02-23T03:47:16;7.60;99.90
14378;DHT22;7272;53.668;9.578;2024-02-23T03:50:18;7.50;99.90
14378;DHT22;7272;53.668;9.578;2024-02-23T03:53:19;7.50;99.90
14378;DHT22;7272;53.668;9.578;2024-02-23T03:56:21;7.40;99.90
14378;DHT22;7272;53.668;9.578;2024-02-23T03:59:22;7.40;99.90
14378;DHT22;7272;53.668;9.578;2024-02-23T04:02:23;7.30;99.90
14378;DHT22;7272;53.668;9.578;2024-02-23T04:05:24;7.20;99.90
14378;DHT22;7272;53.668;9.578;2024-02-23T04:08:25;7.20;99.90
14378;DHT22;7272;53.668;9.578;2024-02-23T04:11:27;7.10;99.90
14378;DHT22;7272;53.668;9.578;2024-02-23T04:14:29;7.10;99.90
14378;DHT22;7272;53.668;9.578;2024-02-23T04:17:30;7.10;99.90
14378;DHT22;7272;53.668;9.578;2024-02-23T04:20:31;7.10;99.90
14378;DHT22;7272;53.668;9.578;2024-02-23T04:23:33;7.10;99.90
14378;DHT22;7272;53.668;9.578;2024-02-23T04:26:35;7.00;99.90
14378;DHT22;7272;53.668;9.578;2024-02-23T04:29:36;7.10;99.90
14378;DHT22;7272;53.668;9.578;2024-02-23T04:32:39;7.00;99.90
14378;DHT22;7272;53.668;9.578;2024-02-23T04:35:40;7.00;99.90
14378;DHT22;7272;53.668;9.578;2024-02-23T04:38:41;7.10;99.90
14378;DHT22;7272;53.668;9.578;2024-02-23T04:41:43;7.00;99.90
14378;DHT22;7272;53.668;9.578;2024-02-23T04:44:44;7.00;99.90
14378;DHT22;7272;53.668;9.578;2024-02-23T04:47:46;7.10;99.90
14378;DHT22;7272;53.668;9.578;2024-02-23T04:50:48;7.10;99.90
14378;DHT22;7272;53.668;9.578;2024-02-23T04:53:50;7.10;99.90
14378;DHT22;7272;53.668;9.578;2024-02-23T04:56:52;7.10;99.90
14378;DHT22;7272;53.668;9.578;2024-02-23T04:59:53;7.10;99.90
14378;DHT22;7272;53.668;9.578;2024-02-23T05:02:54;7.10;99.90
14378;DHT22;7272;53.668;9.578;2024-02-23T05:05:56;7.10;99.90
14378;DHT22;7272;53.668;9.578;2024-02-23T05:08:57;7.20;99.90
14378;DHT22;7272;53.668;9.578;2024-02-23T05:11:59;7.10;99.90
14378;DHT22;7272;53.668;9.578;2024-02-23T05:15:00;7.10;99.90
14378;DHT22;7272;53.668;9.578;2024-02-23T05:18:01;7.10;99.90
14378;DHT22;7272;53.668;9.578;2024-02-23T05:21:03;7.10;99.90
14378;DHT22;7272;53.668;9.578;2024-02-23T05:24:05;7.10;99.90
14378;DHT22;7272;53.668;9.578;2024-02-23T05:27:07;7.00;99.90
14378;DHT22;7272;53.668;9.578;2024-02-23T05:30:09;7.00;99.90
14378;DHT22;7272;53.668;9.578;2024-02-23T05:33:11;7.00;99.90
14378;DHT22;7272;53.668;9.578;2024-02-23T05:36:12;7.00;99.90
14378;DHT22;7272;53.668;9.578;2024-02-23T05:39:14;7.00;99.90
14378;DHT22;7272;53.668;9.578;2024-02-23T05:42:16;7.00;99.90
14378;DHT22;7272;53.668;9.578;2024-02-23T05:45:18;7.00;99.90
14378;DHT22;7272;53.668;9.578;2024-02-23T05:48:19;7.00;99.90
14378;DHT22;7272;53.668;9.578;2024-02-23T05:51:21;7.00;99.90
14378;DHT22;7272;53.668;9.578;2024-02-23T05:54:22;7.00;99.90
14378;DHT22;7272;53.668;9.578;2024-02-23T05:57:24;7.00;99.90
14378;DHT22;7272;53.668;9.578;2024-02-23T06:00:25;7.00;99.90
14378;DHT22;7272;53.668;9.578;2024-02-23T06:03:26;7.00;99.90
14378;DHT22;7272;53.668;9.578;2024-02-23T06:06:28;7.10;99.90
14378;DHT22;7272;53.668;9.578;2024-02-23T06:09:30;7.00;99.90
14378;DHT22;7272;53.668;9.578;2024-02-23T06:12:31;7.00;99.90
14378;DHT22;7272;53.668;9.578;2024-02-23T06:15:33;6.90;99.90
14378;DHT22;7272;53.668;9.578;2024-02-23T06:18:34;6.80;99.90
14378;DHT22;7272;53.668;9.578;2024-02-23T06:21:35;6.80;99.90
14378;DHT22;7272;53.668;9.578;2024-02-23T06:24:37;6.80;99.90
14378;DHT22;7272;53.668;9.578;2024-02-23T06:27:39;6.70;99.90
14378;DHT22;7272;53.668;9.578;2024-02-23T06:30:40;6.70;99.90
14378;DHT22;7272;53.668;9.578;2024-02-23T06:33:41;6.60;99.90
14378;DHT22;7272;53.668;9.578;2024-02-23T06:36:42;6.60;99.90
14378;DHT22;7272;53.668;9.578;2024-02-23T06:39:44;6.60;99.90
14378;DHT22;7272;53.668;9.578;2024-02-23T06:42:51;6.60;99.90
14378;DHT22;7272;53.668;9.578;2024-02-23T06:45:52;6.60;99.90
14378;DHT22;7272;53.668;9.578;2024-02-23T06:48:53;6.60;99.90
14378;DHT22;7272;53.668;9.578;2024-02-23T06:51:55;6.60;99.90
14378;DHT22;7272;53.668;9.578;2024-02-23T06:54:56;6.70;99.90
14378;DHT22;7272;53.668;9.578;2024-02-23T06:57:58;6.60;99.90
14378;DHT22;7272;53.668;9.578;2024-02-23T07:00:59;6.60;99.90
14378;DHT22;7272;53.668;9.578;2024-02-23T07:04:01;6.60;99.90
14378;DHT22;7272;53.668;9.578;2024-02-23T07:07:03;6.60;99.90
14378;DHT22;7272;53.668;9.578;2024-02-23T07:10:08;6.60;99.90
14378;DHT22;7272;53.668;9.578;2024-02-23T07:13:11;6.60;99.90
14378;DHT22;7272;53.668;9.578;2024-02-23T07:16:13;6.60;99.90
14378;DHT22;7272;53.668;9.578;2024-02-23T07:19:14;6.70;99.90
14378;DHT22;7272;53.668;9.578;2024-02-23T07:22:15;6.60;99.90
14378;DHT22;7272;53.668;9.578;2024-02-23T07:25:19;6.70;99.90
14378;DHT22;7272;53.668;9.578;2024-02-23T07:28:21;6.70;99.90
14378;DHT22;7272;53.668;9.578;2024-02-23T07:31:23;6.70;99.90
14378;DHT22;7272;53.668;9.578;2024-02-23T07:34:25;6.70;99.90
14378;DHT22;7272;53.668;9.578;2024-02-23T07:37:26;6.70;99.90
14378;DHT22;7272;53.668;9.578;2024-02-23T07:40:28;6.80;99.90
14378;DHT22;7272;53.668;9.578;2024-02-23T07:43:29;6.80;99.90
14378;DHT22;7272;53.668;9.578;2024-02-23T07:46:31;6.90;99.90
14378;DHT22;7272;53.668;9.578;2024-02-23T07:49:32;6.90;99.90
14378;DHT22;7272;53.668;9.578;2024-02-23T07:52:33;7.00;99.90
14378;DHT22;7272;53.668;9.578;2024-02-23T07:55:34;7.00;99.90
14378;DHT22;7272;53.668;9.578;2024-02-23T07:58:36;7.00;99.90
14378;DHT22;7272;53.668;9.578;2024-02-23T08:01:37;7.10;99.90
14378;DHT22;7272;53.668;9.578;2024-02-23T08:04:38;7.20;99.90
14378;DHT22;7272;53.668;9.578;2024-02-23T08:07:40;7.30;99.90
14378;DHT22;7272;53.668;9.578;2024-02-23T08:10:41;7.30;99.90
14378;DHT22;7272;53.668;9.578;2024-02-23T08:13:43;7.40;99.90
14378;DHT22;7272;53.668;9.578;2024-02-23T08:16:44;7.40;99.90
14378;DHT22;7272;53.668;9.578;2024-02-23T08:19:46;7.60;99.90
14378;DHT22;7272;53.668;9.578;2024-02-23T08:22:47;7.60;99.90
14378;DHT22;7272;53.668;9.578;2024-02-23T08:25:48;7.60;99.90
14378;DHT22;7272;53.668;9.578;2024-02-23T08:28:50;7.70;99.90
14378;DHT22;7272;53.668;9.578;2024-02-23T08:31:51;8.00;99.90
14378;DHT22;7272;53.668;9.578;2024-02-23T08:34:53;8.00;99.90
14378;DHT22;7272;53.668;9.578;2024-02-23T08:37:59;7.90;99.90
14378;DHT22;7272;53.668;9.578;2024-02-23T08:41:01;7.70;99.90
14378;DHT22;7272;53.668;9.578;2024-02-23T08:44:04;7.70;99.90
14378;DHT22;7272;53.668;9.578;2024-02-23T08:47:05;7.70;99.90
14378;DHT22;7272;53.668;9.578;2024-02-23T08:50:07;7.80;99.90
14378;DHT22;7272;53.668;9.578;2024-02-23T08:53:08;7.90;99.90
14378;DHT22;7272;53.668;9.578;2024-02-23T08:56:11;8.00;99.90
14378;DHT22;7272;53.668;9.578;2024-02-23T08:59:13;8.00;99.90
14378;DHT22;7272;53.668;9.578;2024-02-23T09:02:14;8.10;99.90
14378;DHT22;7272;53.668;9.578;2024-02-23T09:05:15;8.20;99.90
14378;DHT22;7272;53.668;9.578;2024-02-23T09:08:16;8.10;99.90
14378;DHT22;7272;53.668;9.578;2024-02-23T09:11:17;8.20;99.90
14378;DHT22;7272;53.668;9.578;2024-02-23T09:14:19;8.20;99.90
14378;DHT22;7272;53.668;9.578;2024-02-23T09:17:21;8.20;99.90
14378;DHT22;7272;53.668;9.578;2024-02-23T09:20:22;8.30;99.90
14378;DHT22;7272;53.668;9.578;2024-02-23T09:23:23;8.40;99.90
14378;DHT22;7272;53.668;9.578;2024-02-23T09:26:25;8.40;99.90
14378;DHT22;7272;53.668;9.578;2024-02-23T09:29:27;8.50;99.90
14378;DHT22;7272;53.668;9.578;2024-02-23T09:32:28;8.50;99.90
14378;DHT22;7272;53.668;9.578;2024-02-23T09:35:29;8.60;99.90
14378;DHT22;7272;53.668;9.578;2024-02-23T09:38:31;8.60;99.90
14378;DHT22;7272;53.668;9.578;2024-02-23T09:41:33;8.60;99.90
14378;DHT22;7272;53.668;9.578;2024-02-23T09:44:36;8.60;99.90
14378;DHT22;7272;53.668;9.578;2024-02-23T09:47:38;8.70;99.90
14378;DHT22;7272;53.668;9.578;2024-02-23T09:50:40;8.80;99.90
14378;DHT22;7272;53.668;9.578;2024-02-23T09:53:43;8.90;99.90
14378;DHT22;7272;53.668;9.578;2024-02-23T09:56:45;9.00;99.90
14378;DHT22;7272;53.668;9.578;2024-02-23T09:59:48;9.00;99.90
14378;DHT22;7272;53.668;9.578;2024-02-23T10:02:50;8.90;99.90
14378;DHT22;7272;53.668;9.578;2024-02-23T10:05:51;8.90;99.90
14378;DHT22;7272;53.668;9.578;2024-02-23T10:08:53;9.00;99.90
14378;DHT22;7272;53.668;9.578;2024-02-23T10:11:54;9.00;99.90
14378;DHT22;7272;53.668;9.578;2024-02-23T10:14:56;9.00;99.90
14378;DHT22;7272;53.668;9.578;2024-02-23T10:17:58;9.00;99.90
14378;DHT22;7272;53.668;9.578;2024-02-23T10:20:59;9.00;99.90
14378;DHT22;7272;53.668;9.578;2024-02-23T10:24:00;9.00;99.90
14378;DHT22;7272;53.668;9.578;2024-02-23T10:27:02;9.00;99.90
14378;DHT22;7272;53.668;9.578;2024-02-23T10:30:05;9.00;99.90
14378;DHT22;7272;53.668;9.578;2024-02-23T10:33:06;9.10;99.90
14378;DHT22;7272;53.668;9.578;2024-02-23T10:36:08;9.20;99.90
14378;DHT22;7272;53.668;9.578;2024-02-23T10:39:10;9.30;99.90
14378;DHT22;7272;53.668;9.578;2024-02-23T10:42:12;9.50;99.90
14378;DHT22;7272;53.668;9.578;2024-02-23T10:45:16;9.50;99.90
14378;DHT22;7272;53.668;9.578;2024-02-23T10:48:17;9.50;99.90
14378;DHT22;7272;53.668;9.578;2024-02-23T10:51:19;9.70;99.90
14378;DHT22;7272;53.668;9.578;2024-02-23T10:54:20;9.70;99.90
14378;DHT22;7272;53.668;9.578;2024-02-23T10:57:22;9.60;99.90
14378;DHT22;7272;53.668;9.578;2024-02-23T11:00:24;9.60;99.90
14378;DHT22;7272;53.668;9.578;2024-02-23T11:03:27;9.50;99.90
14378;DHT22;7272;53.668;9.578;2024-02-23T11:06:28;9.40;99.90
14378;DHT22;7272;53.668;9.578;2024-02-23T11:09:31;9.30;99.90
14378;DHT22;7272;53.668;9.578;2024-02-23T11:12:33;9.30;99.90
14378;DHT22;7272;53.668;9.578;2024-02-23T11:15:42;9.30;99.90
14378;DHT22;7272;53.668;9.578;2024-02-23T11:18:43;9.30;99.90
14378;DHT22;7272;53.668;9.578;2024-02-23T11:21:52;9.40;99.90
14378;DHT22;7272;53.668;9.578;2024-02-23T11:24:53;9.80;99.90
14378;DHT22;7272;53.668;9.578;2024-02-23T11:27:55;10.10;99.90
14378;DHT22;7272;53.668;9.578;2024-02-23T11:30:57;10.20;99.90
14378;DHT22;7272;53.668;9.578;2024-02-23T11:34:08;10.10;99.90
14378;DHT22;7272;53.668;9.578;2024-02-23T11:37:10;10.00;99.90
14378;DHT22;7272;53.668;9.578;2024-02-23T11:40:12;9.90;99.90
14378;DHT22;7272;53.668;9.578;2024-02-23T11:43:14;9.90;99.90
14378;DHT22;7272;53.668;9.578;2024-02-23T11:46:16;9.90;99.90
14378;DHT22;7272;53.668;9.578;2024-02-23T11:49:17;9.90;99.90
14378;DHT22;7272;53.668;9.578;2024-02-23T11:52:19;10.00;99.90
14378;DHT22;7272;53.668;9.578;2024-02-23T11:55:21;9.90;99.90
14378;DHT22;7272;53.668;9.578;2024-02-23T11:58:23;9.90;99.90
14378;DHT22;7272;53.668;9.578;2024-02-23T12:01:25;9.90;99.90
14378;DHT22;7272;53.668;9.578;2024-02-23T12:04:26;10.00;99.90
14378;DHT22;7272;53.668;9.578;2024-02-23T12:07:29;9.90;99.90
14378;DHT22;7272;53.668;9.578;2024-02-23T12:10:31;9.90;99.90
14378;DHT22;7272;53.668;9.578;2024-02-23T12:13:32;9.80;99.90
14378;DHT22;7272;53.668;9.578;2024-02-23T12:16:35;9.80;99.90
14378;DHT22;7272;53.668;9.578;2024-02-23T12:19:38;9.80;99.90
14378;DHT22;7272;53.668;9.578;2024-02-23T12:22:40;9.80;99.90
14378;DHT22;7272;53.668;9.578;2024-02-23T12:25:52;9.70;99.90
14378;DHT22;7272;53.668;9.578;2024-02-23T12:29:00;9.80;99.90
14378;DHT22;7272;53.668;9.578;2024-02-23T12:32:06;9.80;99.90
14378;DHT22;7272;53.668;9.578;2024-02-23T12:35:11;9.90;99.90
14378;DHT22;7272;53.668;9.578;2024-02-23T12:38:12;10.00;99.90
14378;DHT22;7272;53.668;9.578;2024-02-23T12:41:13;10.20;99.90
14378;DHT22;7272;53.668;9.578;2024-02-23T12:44:15;10.10;99.90
14378;DHT22;7272;53.668;9.578;2024-02-23T12:47:17;10.10;99.90
14378;DHT22;7272;53.668;9.578;2024-02-23T12:50:18;10.10;99.90
14378;DHT22;7272;53.668;9.578;2024-02-23T12:53:33;10.10;99.90
14378;DHT22;7272;53.668;9.578;2024-02-23T12:56:34;10.00;99.90
14378;DHT22;7272;53.668;9.578;2024-02-23T12:59:36;9.90;99.90
14378;DHT22;7272;53.668;9.578;2024-02-23T13:02:38;9.90;99.90
14378;DHT22;7272;53.668;9.578;2024-02-23T13:05:39;9.90;99.90
14378;DHT22;7272;53.668;9.578;2024-02-23T13:08:40;9.80;99.90
14378;DHT22;7272;53.668;9.578;2024-02-23T13:11:43;9.80;99.90
14378;DHT22;7272;53.668;9.578;2024-02-23T13:14:44;9.80;99.90
14378;DHT22;7272;53.668;9.578;2024-02-23T13:17:46;9.70;99.90
14378;DHT22;7272;53.668;9.578;2024-02-23T13:20:47;9.70;99.90
14378;DHT22;7272;53.668;9.578;2024-02-23T13:23:49;9.70;99.90
14378;DHT22;7272;53.668;9.578;2024-02-23T13:26:50;9.70;99.90
14378;DHT22;7272;53.668;9.578;2024-02-23T13:29:51;9.70;99.90
14378;DHT22;7272;53.668;9.578;2024-02-23T13:32:53;9.70;99.90
14378;DHT22;7272;53.668;9.578;2024-02-23T13:35:55;9.60;99.90
14378;DHT22;7272;53.668;9.578;2024-02-23T13:38:56;9.70;99.90
14378;DHT22;7272;53.668;9.578;2024-02-23T13:41:57;9.60;99.90
14378;DHT22;7272;53.668;9.578;2024-02-23T13:44:58;9.60;99.90
14378;DHT22;7272;53.668;9.578;2024-02-23T13:48:01;9.60;99.90
14378;DHT22;7272;53.668;9.578;2024-02-23T13:51:03;9.60;99.90
14378;DHT22;7272;53.668;9.578;2024-02-23T13:54:05;9.60;99.90
14378;DHT22;7272;53.668;9.578;2024-02-23T13:57:06;9.70;99.90
14378;DHT22;7272;53.668;9.578;2024-02-23T14:00:09;9.80;99.90
14378;DHT22;7272;53.668;9.578;2024-02-23T14:03:16;9.90;99.90
14378;DHT22;7272;53.668;9.578;2024-02-23T14:06:18;10.20;99.90
14378;DHT22;7272;53.668;9.578;2024-02-23T14:09:19;10.40;99.90
14378;DHT22;7272;53.668;9.578;2024-02-23T14:12:20;10.30;99.90
14378;DHT22;7272;53.668;9.578;2024-02-23T14:15:22;10.30;99.90
14378;DHT22;7272;53.668;9.578;2024-02-23T14:18:23;10.30;99.90
14378;DHT22;7272;53.668;9.578;2024-02-23T14:21:25;10.30;99.90
14378;DHT22;7272;53.668;9.578;2024-02-23T14:24:26;10.40;99.90
14378;DHT22;7272;53.668;9.578;2024-02-23T14:27:27;10.40;99.90
14378;DHT22;7272;53.668;9.578;2024-02-23T14:30:29;10.40;99.90
14378;DHT22;7272;53.668;9.578;2024-02-23T14:33:32;10.30;99.90
14378;DHT22;7272;53.668;9.578;2024-02-23T14:36:33;10.20;99.90
14378;DHT22;7272;53.668;9.578;2024-02-23T14:39:35;10.20;99.90
14378;DHT22;7272;53.668;9.578;2024-02-23T14:42:36;10.10;99.90
14378;DHT22;7272;53.668;9.578;2024-02-23T14:45:37;10.10;99.90
14378;DHT22;7272;53.668;9.578;2024-02-23T14:48:39;10.00;99.90
14378;DHT22;7272;53.668;9.578;2024-02-23T14:51:40;10.00;99.90
14378;DHT22;7272;53.668;9.578;2024-02-23T14:54:43;10.00;99.90
14378;DHT22;7272;53.668;9.578;2024-02-23T14:57:44;9.90;99.90
14378;DHT22;7272;53.668;9.578;2024-02-23T15:00:45;9.90;99.90
14378;DHT22;7272;53.668;9.578;2024-02-23T15:03:48;9.90;99.90
14378;DHT22;7272;53.668;9.578;2024-02-23T15:06:49;9.90;99.90
14378;DHT22;7272;53.668;9.578;2024-02-23T15:09:50;9.90;99.90
14378;DHT22;7272;53.668;9.578;2024-02-23T15:12:52;9.90;99.90
14378;DHT22;7272;53.668;9.578;2024-02-23T15:15:53;9.80;99.90
14378;DHT22;7272;53.668;9.578;2024-02-23T15:18:57;9.80;99.90
14378;DHT22;7272;53.668;9.578;2024-02-23T15:21:58;9.80;99.90
14378;DHT22;7272;53.668;9.578;2024-02-23T15:25:00;9.80;99.90
14378;DHT22;7272;53.668;9.578;2024-02-23T15:28:01;9.80;99.90
14378;DHT22;7272;53.668;9.578;2024-02-23T15:31:03;9.80;99.90
14378;DHT22;7272;53.668;9.578;2024-02-23T15:34:05;9.80;99.90
14378;DHT22;7272;53.668;9.578;2024-02-23T15:37:06;9.80;99.90
14378;DHT22;7272;53.668;9.578;2024-02-23T15:40:09;9.80;99.90
14378;DHT22;7272;53.668;9.578;2024-02-23T15:43:10;9.70;99.90
14378;DHT22;7272;53.668;9.578;2024-02-23T15:46:11;9.70;99.90
14378;DHT22;7272;53.668;9.578;2024-02-23T15:49:13;9.50;99.90
14378;DHT22;7272;53.668;9.578;2024-02-23T15:52:18;9.20;99.90
14378;DHT22;7272;53.668;9.578;2024-02-23T15:55:19;9.00;99.90
14378;DHT22;7272;53.668;9.578;2024-02-23T15:58:21;8.90;99.90
14378;DHT22;7272;53.668;9.578;2024-02-23T16:01:22;8.80;99.90
14378;DHT22;7272;53.668;9.578;2024-02-23T16:04:24;8.80;99.90
14378;DHT22;7272;53.668;9.578;2024-02-23T16:07:26;8.90;99.90
14378;DHT22;7272;53.668;9.578;2024-02-23T16:10:27;8.90;99.90
14378;DHT22;7272;53.668;9.578;2024-02-23T16:13:29;8.80;99.90
14378;DHT22;7272;53.668;9.578;2024-02-23T16:16:31;8.80;99.90
14378;DHT22;7272;53.668;9.578;2024-02-23T16:19:32;8.80;99.90
14378;DHT22;7272;53.668;9.578;2024-02-23T16:22:34;8.80;99.90
14378;DHT22;7272;53.668;9.578;2024-02-23T16:25:35;8.80;99.90
14378;DHT22;7272;53.668;9.578;2024-02-23T16:28:39;8.80;99.90
14378;DHT22;7272;53.668;9.578;2024-02-23T16:31:41;8.80;99.90
14378;DHT22;7272;53.668;9.578;2024-02-23T16:34:42;8.80;99.90
14378;DHT22;7272;53.668;9.578;2024-02-23T16:37:44;8.80;99.90
14378;DHT22;7272;53.668;9.578;2024-02-23T16:40:45;8.80;99.90
14378;DHT22;7272;53.668;9.578;2024-02-23T16:43:47;8.80;99.90
14378;DHT22;7272;53.668;9.578;2024-02-23T16:46:48;8.70;99.90
14378;DHT22;7272;53.668;9.578;2024-02-23T16:49:50;8.60;99.90
14378;DHT22;7272;53.668;9.578;2024-02-23T16:52:52;8.40;99.90
14378;DHT22;7272;53.668;9.578;2024-02-23T16:55:53;8.40;99.90
14378;DHT22;7272;53.668;9.578;2024-02-23T16:58:56;8.30;99.90
14378;DHT22;7272;53.668;9.578;2024-02-23T17:01:57;8.20;99.90
14378;DHT22;7272;53.668;9.578;2024-02-23T17:04:59;8.10;99.90
14378;DHT22;7272;53.668;9.578;2024-02-23T17:08:01;8.00;99.90
14378;DHT22;7272;53.668;9.578;2024-02-23T17:11:03;8.00;99.90
14378;DHT22;7272;53.668;9.578;2024-02-23T17:14:04;8.00;99.90
14378;DHT22;7272;53.668;9.578;2024-02-23T17:17:05;8.00;99.90
14378;DHT22;7272;53.668;9.578;2024-02-23T17:20:08;7.90;99.90
14378;DHT22;7272;53.668;9.578;2024-02-23T17:23:09;7.90;99.90
14378;DHT22;7272;53.668;9.578;2024-02-23T17:26:11;7.90;99.90
14378;DHT22;7272;53.668;9.578;2024-02-23T17:29:12;7.90;99.90
14378;DHT22;7272;53.668;9.578;2024-02-23T17:32:14;7.90;99.90
14378;DHT22;7272;53.668;9.578;2024-02-23T17:35:15;7.90;99.90
14378;DHT22;7272;53.668;9.578;2024-02-23T17:38:17;7.90;99.90
14378;DHT22;7272;53.668;9.578;2024-02-23T17:41:18;7.90;99.90
14378;DHT22;7272;53.668;9.578;2024-02-23T17:44:20;7.90;99.90
14378;DHT22;7272;53.668;9.578;2024-02-23T17:47:21;7.80;99.90
14378;DHT22;7272;53.668;9.578;2024-02-23T17:50:23;7.70;99.90
14378;DHT22;7272;53.668;9.578;2024-02-23T17:53:25;7.70;99.90
14378;DHT22;7272;53.668;9.578;2024-02-23T17:56:26;7.80;99.90
14378;DHT22;7272;53.668;9.578;2024-02-23T17:59:27;7.80;99.90
14378;DHT22;7272;53.668;9.578;2024-02-23T18:02:29;7.80;99.90
14378;DHT22;7272;53.668;9.578;2024-02-23T18:05:31;7.70;99.90
14378;DHT22;7272;53.668;9.578;2024-02-23T18:08:32;7.70;99.90
14378;DHT22;7272;53.668;9.578;2024-02-23T18:11:36;7.70;99.90
14378;DHT22;7272;53.668;9.578;2024-02-23T18:14:38;7.70;99.90
14378;DHT22;7272;53.668;9.578;2024-02-23T18:17:39;7.70;99.90
14378;DHT22;7272;53.668;9.578;2024-02-23T18:20:41;7.70;99.90
14378;DHT22;7272;53.668;9.578;2024-02-23T18:23:44;7.70;99.90
14378;DHT22;7272;53.668;9.578;2024-02-23T18:26:45;7.70;99.90
14378;DHT22;7272;53.668;9.578;2024-02-23T18:29:47;7.70;99.90
14378;DHT22;7272;53.668;9.578;2024-02-23T18:32:48;7.70;99.90
14378;DHT22;7272;53.668;9.578;2024-02-23T18:35:50;7.70;99.90
14378;DHT22;7272;53.668;9.578;2024-02-23T18:38:51;7.70;99.90
14378;DHT22;7272;53.668;9.578;2024-02-23T18:41:52;7.70;99.90
14378;DHT22;7272;53.668;9.578;2024-02-23T18:44:56;7.70;99.90
14378;DHT22;7272;53.668;9.578;2024-02-23T18:47:57;7.70;99.90
14378;DHT22;7272;53.668;9.578;2024-02-23T18:51:00;7.70;99.90
14378;DHT22;7272;53.668;9.578;2024-02-23T18:54:01;7.70;99.90
14378;DHT22;7272;53.668;9.578;2024-02-23T18:57:03;7.60;99.90
14378;DHT22;7272;53.668;9.578;2024-02-23T19:00:05;7.60;99.90
14378;DHT22;7272;53.668;9.578;2024-02-23T19:03:07;7.60;99.90
14378;DHT22;7272;53.668;9.578;2024-02-23T19:06:09;7.70;99.90
14378;DHT22;7272;53.668;9.578;2024-02-23T19:09:10;7.60;99.90
14378;DHT22;7272;53.668;9.578;2024-02-23T19:12:12;7.60;99.90
14378;DHT22;7272;53.668;9.578;2024-02-23T19:15:13;7.70;99.90
14378;DHT22;7272;53.668;9.578;2024-02-23T19:18:14;7.70;99.90
14378;DHT22;7272;53.668;9.578;2024-02-23T19:21:18;7.70;99.90
14378;DHT22;7272;53.668;9.578;2024-02-23T19:24:19;7.70;99.90
14378;DHT22;7272;53.668;9.578;2024-02-23T19:27:20;7.60;99.90
14378;DHT22;7272;53.668;9.578;2024-02-23T19:30:22;7.60;99.90
14378;DHT22;7272;53.668;9.578;2024-02-23T19:33:24;7.60;99.90
14378;DHT22;7272;53.668;9.578;2024-02-23T19:36:25;7.60;99.90
14378;DHT22;7272;53.668;9.578;2024-02-23T19:39:27;7.50;99.90
14378;DHT22;7272;53.668;9.578;2024-02-23T19:42:30;7.50;99.90
14378;DHT22;7272;53.668;9.578;2024-02-23T19:45:31;7.50;99.90